createdAt,value
2023-03-11T00:01:41.304Z,97756.58
2023-03-11T00:04:13.869Z,97757.45
2023-03-11T00:06:46.621Z,97749.68
2023-03-11T00:09:20.006Z,97747.70
2023-03-11T00:11:52.463Z,97744.28
2023-03-11T00:14:25.572Z,97741.98
2023-03-11T00:16:58.142Z,97743.96
2023-03-11T00:19:30.611Z,97735.96
2023-03-11T00:22:05.003Z,97736.71
2023-03-11T00:24:37.375Z,97742.05
2023-03-11T00:27:09.839Z,97736.23
2023-03-11T00:29:42.193Z,97735.17
2023-03-11T00:32:14.812Z,97731.92
2023-03-11T00:34:47.209Z,97731.94
2023-03-11T00:37:19.989Z,97730.86
2023-03-11T00:39:53.017Z,97733.52
2023-03-11T00:42:25.538Z,97731.96
2023-03-11T00:44:57.950Z,97729.10
2023-03-11T00:47:30.546Z,97726.70
2023-03-11T00:50:03.091Z,97708.40
2023-03-11T00:52:35.709Z,97706.80
2023-03-11T00:55:11.406Z,97716.05
2023-03-11T00:57:44.257Z,97707.18
2023-03-11T01:00:23.163Z,97708.86
2023-03-11T01:02:56.789Z,97709.40
2023-03-11T01:05:32.078Z,97706.61
2023-03-11T01:08:05.653Z,97706.59
2023-03-11T01:10:39.286Z,97691.24
2023-03-11T01:13:11.786Z,97708.27
2023-03-11T01:15:44.253Z,97704.08
2023-03-11T01:18:16.828Z,97704.85
2023-03-11T01:20:50.094Z,97703.59
2023-03-11T01:23:23.014Z,97704.98
2023-03-11T01:25:55.733Z,97703.11
2023-03-11T01:28:28.247Z,97701.66
2023-03-11T01:31:01.130Z,97700.36
2023-03-11T01:33:34.078Z,97700.40
2023-03-11T01:36:08.016Z,97705.30
2023-03-11T01:38:40.754Z,97703.23
2023-03-11T01:41:14.529Z,97705.61
2023-03-11T01:43:55.832Z,97704.41
2023-03-11T01:46:38.792Z,97703.27
2023-03-11T01:49:14.715Z,97706.81
2023-03-11T01:51:52.114Z,97702.20
2023-03-11T01:54:28.414Z,97702.45
2023-03-11T01:57:02.151Z,97701.77
2023-03-11T01:59:39.125Z,97702.16
2023-03-11T02:02:17.922Z,97698.52
2023-03-11T02:04:51.386Z,97698.70
2023-03-11T02:07:25.072Z,97696.98
2023-03-11T02:09:59.890Z,97696.06
2023-03-11T02:12:38.007Z,97698.65
2023-03-11T02:15:13.116Z,97696.70
2023-03-11T02:17:46.330Z,97696.50
2023-03-11T02:20:29.249Z,97702.38
2023-03-11T02:23:03.569Z,97701.41
2023-03-11T02:25:43.869Z,97704.67
2023-03-11T02:28:19.161Z,97707.63
2023-03-11T02:30:53.564Z,97701.78
2023-03-11T02:33:29.134Z,97700.08
2023-03-11T02:36:02.326Z,97699.63
2023-03-11T02:38:35.099Z,97706.52
2023-03-11T02:41:09.794Z,97707.52
2023-03-11T02:43:46.413Z,97709.70
2023-03-11T02:46:21.150Z,97710.63
2023-03-11T02:48:55.506Z,97713.85
2023-03-11T02:51:28.159Z,97710.50
2023-03-11T02:54:04.571Z,97697.20
2023-03-11T02:56:37.272Z,97717.35
2023-03-11T02:59:10.046Z,97724.08
2023-03-11T03:01:43.265Z,97735.86
2023-03-11T03:04:15.751Z,97735.41
2023-03-11T03:06:48.422Z,97737.84
2023-03-11T03:09:23.745Z,97741.83
2023-03-11T03:11:57.965Z,97745.23
2023-03-11T03:14:30.989Z,97748.42
2023-03-11T03:17:03.584Z,97751.79
2023-03-11T03:19:36.130Z,97755.14
2023-03-11T03:22:09.322Z,97762.79
2023-03-11T03:24:41.920Z,97769.58
2023-03-11T03:27:14.546Z,97771.67
2023-03-11T03:29:47.088Z,97777.25
2023-03-11T03:32:19.893Z,97780.75
2023-03-11T03:34:59.174Z,97779.23
2023-03-11T03:37:40.040Z,97796.79
2023-03-11T03:40:14.366Z,97806.29
2023-03-11T03:42:47.129Z,97812.63
2023-03-11T03:45:20.345Z,97814.29
2023-03-11T03:47:54.142Z,97821.20
2023-03-11T03:50:27.513Z,97834.91
2023-03-11T03:53:00.626Z,97842.37
2023-03-11T03:55:33.173Z,97849.98
2023-03-11T03:58:06.094Z,97854.83
2023-03-11T04:00:40.647Z,97856.00
2023-03-11T04:03:13.202Z,97870.33
2023-03-11T04:05:50.722Z,97880.05
2023-03-11T04:08:23.547Z,97883.98
2023-03-11T04:11:02.388Z,97890.25
2023-03-11T04:13:35.565Z,97890.30
2023-03-11T04:16:09.691Z,97895.59
2023-03-11T04:18:42.295Z,97896.21
2023-03-11T04:21:15.083Z,97884.59
2023-03-11T04:23:48.392Z,97899.14
2023-03-11T04:26:21.722Z,97901.85
2023-03-11T04:28:54.701Z,97901.13
2023-03-11T04:31:29.269Z,97914.38
2023-03-11T04:34:02.083Z,97916.80
2023-03-11T04:36:35.181Z,97921.42
2023-03-11T04:39:08.919Z,97925.58
2023-03-11T04:41:45.851Z,97935.32
2023-03-11T04:44:21.587Z,97939.90
2023-03-11T04:46:55.031Z,97952.50
2023-03-11T04:49:27.683Z,97957.37
2023-03-11T04:52:00.334Z,97964.42
2023-03-11T04:54:32.975Z,97971.65
2023-03-11T04:57:06.127Z,97977.19
2023-03-11T04:59:39.676Z,97982.65
2023-03-11T05:02:13.033Z,97987.88
2023-03-11T05:04:47.816Z,97976.55
2023-03-11T05:07:20.634Z,98005.00
2023-03-11T05:09:59.528Z,98012.83
2023-03-11T05:12:32.184Z,98018.27
2023-03-11T05:15:05.205Z,98025.67
2023-03-11T05:17:40.435Z,98028.58
2023-03-11T05:20:15.966Z,98037.63
2023-03-11T05:22:49.077Z,98050.05
2023-03-11T05:25:22.040Z,98053.13
2023-03-11T05:27:57.682Z,98056.62
2023-03-11T05:30:32.188Z,98070.23
2023-03-11T05:33:04.867Z,98077.17
2023-03-11T05:35:45.335Z,98075.55
2023-03-11T05:38:18.115Z,98084.82
2023-03-11T05:40:51.042Z,98103.44
2023-03-11T05:43:24.916Z,98110.77
2023-03-11T05:46:01.590Z,98121.58
2023-03-11T05:48:34.390Z,98126.20
2023-03-11T05:51:12.321Z,98134.79
2023-03-11T05:53:48.755Z,98143.23
2023-03-11T05:56:27.997Z,98149.86
2023-03-11T05:59:01.538Z,98161.23
2023-03-11T06:01:36.084Z,98173.31
2023-03-11T06:04:10.410Z,98184.16
2023-03-11T06:06:43.625Z,98192.84
2023-03-11T06:09:17.445Z,98201.30
2023-03-11T06:11:50.203Z,98222.88
2023-03-11T06:14:26.675Z,98213.12
2023-03-11T06:17:04.076Z,98232.00
2023-03-11T06:19:37.096Z,98244.89
2023-03-11T06:22:10.275Z,98252.60
2023-03-11T06:24:42.956Z,98260.59
2023-03-11T06:27:15.711Z,98275.96
2023-03-11T06:29:48.801Z,98291.88
2023-03-11T06:32:22.131Z,98300.31
2023-03-11T06:34:57.107Z,98296.77
2023-03-11T06:37:30.086Z,98311.43
2023-03-11T06:40:03.774Z,98338.49
2023-03-11T06:42:36.921Z,98343.39
2023-03-11T06:45:13.250Z,98362.17
2023-03-11T06:47:47.095Z,98370.54
2023-03-11T06:50:23.689Z,98385.43
2023-03-11T06:52:59.937Z,98389.79
2023-03-11T06:55:32.604Z,98400.80
2023-03-11T06:58:05.852Z,98407.27
2023-03-11T07:00:41.704Z,98418.86
2023-03-11T07:03:15.211Z,98400.27
2023-03-11T07:05:51.097Z,98438.16
2023-03-11T07:08:23.561Z,98452.22
2023-03-11T07:11:05.287Z,98465.36
2023-03-11T07:13:39.316Z,98473.45
2023-03-11T07:16:15.626Z,98466.66
2023-03-11T07:18:49.824Z,98492.94
2023-03-11T07:21:24.581Z,98507.14
2023-03-11T07:23:58.757Z,98514.64
2023-03-11T07:26:32.804Z,98525.08
2023-03-11T07:29:05.502Z,98533.36
2023-03-11T07:31:38.651Z,98544.35
2023-03-11T07:34:13.193Z,98549.05
2023-03-11T07:36:45.675Z,98556.26
2023-03-11T07:39:20.125Z,98559.52
2023-03-11T07:41:51.253Z,98559.46
2023-03-11T07:44:23.919Z,98552.04
2023-03-11T07:46:56.344Z,98572.05
2023-03-11T07:49:29.035Z,98581.28
2023-03-11T07:52:02.075Z,98592.09
2023-03-11T07:54:34.764Z,98606.80
2023-03-11T07:57:08.706Z,98608.31
2023-03-11T07:59:41.331Z,98622.62
2023-03-11T08:02:14.051Z,98633.80
2023-03-11T08:04:46.843Z,98639.09
2023-03-11T08:07:20.801Z,98653.73
2023-03-11T08:09:53.435Z,98657.01
2023-03-11T08:12:25.972Z,98663.67
2023-03-11T08:14:58.876Z,98677.55
2023-03-11T08:17:31.303Z,98692.70
2023-03-11T08:20:05.324Z,98698.83
2023-03-11T08:22:43.401Z,98705.36
2023-03-11T08:25:21.716Z,98715.61
2023-03-11T08:27:54.223Z,98721.02
2023-03-11T08:30:27.935Z,98725.55
2023-03-11T08:33:00.462Z,98730.23
2023-03-11T08:35:33.434Z,98741.23
2023-03-11T08:38:06.639Z,98754.17
2023-03-11T08:40:39.626Z,98758.74
2023-03-11T08:43:15.393Z,98766.53
2023-03-11T08:45:48.141Z,98780.96
2023-03-11T08:48:20.853Z,98777.55
2023-03-11T08:50:54.837Z,98783.21
2023-03-11T08:53:27.761Z,98791.77
2023-03-11T08:56:00.550Z,98803.77
2023-03-11T08:58:32.974Z,98816.17
2023-03-11T09:01:05.777Z,98818.19
2023-03-11T09:03:38.636Z,98820.30
2023-03-11T09:06:17.139Z,98839.98
2023-03-11T09:08:50.971Z,98838.30
2023-03-11T09:11:24.276Z,98843.11
2023-03-11T09:13:56.748Z,98851.06
2023-03-11T09:16:29.493Z,98861.45
2023-03-11T09:19:06.924Z,98871.35
2023-03-11T09:21:40.656Z,98874.11
2023-03-11T09:24:13.338Z,98876.97
2023-03-11T09:26:46.010Z,98880.62
2023-03-11T09:29:18.439Z,98890.59
2023-03-11T09:31:51.404Z,98899.18
2023-03-11T09:34:24.464Z,98900.82
2023-03-11T09:36:57.082Z,98901.70
2023-03-11T09:39:29.516Z,98901.83
2023-03-11T09:42:12.150Z,98909.98
2023-03-11T09:44:50.799Z,98916.45
2023-03-11T09:47:34.323Z,98925.20
2023-03-11T09:50:27.769Z,98932.02
2023-03-11T09:53:18.453Z,98941.64
2023-03-11T09:55:53.712Z,98954.20
2023-03-11T09:58:37.774Z,98967.58
2023-03-11T10:01:18.617Z,98972.81
2023-03-11T10:03:53.098Z,98983.20
2023-03-11T10:06:27.252Z,98988.75
2023-03-11T10:09:07.346Z,98991.80
2023-03-11T10:11:55.495Z,99004.94
2023-03-11T10:14:43.673Z,99004.02
2023-03-11T10:17:32.998Z,99013.31
2023-03-11T10:20:13.179Z,99018.98
2023-03-11T10:22:56.102Z,99027.88
2023-03-11T10:30:30.739Z,99035.05
2023-03-11T10:33:07.995Z,99041.00
2023-03-11T10:35:44.824Z,99042.24
2023-03-11T10:38:21.032Z,99050.64
2023-03-11T10:40:56.241Z,99054.85
2023-03-11T10:43:35.196Z,99061.43
2023-03-11T10:46:16.662Z,99071.92
2023-03-11T10:48:49.223Z,99079.48
2023-03-11T10:51:26.772Z,99078.08
2023-03-11T10:54:00.920Z,99082.84
2023-03-11T10:56:36.217Z,99077.13
2023-03-11T10:59:25.560Z,99092.85
2023-03-11T11:02:01.129Z,99107.44
2023-03-11T11:04:40.394Z,99106.04
2023-03-11T11:07:33.439Z,99114.32
2023-03-11T11:10:21.702Z,99117.96
2023-03-11T11:12:59.656Z,99127.70
2023-03-11T11:15:34.952Z,99126.55
2023-03-11T11:18:16.727Z,99125.36
2023-03-11T11:21:00.989Z,99133.89
2023-03-11T11:23:42.058Z,99138.52
2023-03-11T11:26:22.097Z,99145.97
2023-03-11T11:29:14.302Z,99154.17
2023-03-11T11:31:49.174Z,99156.52
2023-03-11T11:34:28.557Z,99168.30
2023-03-11T11:37:03.626Z,99169.54
2023-03-11T11:39:51.985Z,99172.42
2023-03-11T11:42:27.706Z,99176.27
2023-03-11T11:45:04.672Z,99182.44
2023-03-11T11:47:43.253Z,99185.43
2023-03-11T11:50:20.589Z,99189.94
2023-03-11T11:52:58.708Z,99197.14
2023-03-11T11:55:34.025Z,99196.36
2023-03-11T11:58:11.336Z,99196.75
2023-03-11T12:00:56.846Z,99192.43
2023-03-11T12:04:06.409Z,99211.08
2023-03-11T12:06:48.292Z,99211.30
2023-03-11T12:09:31.626Z,99213.39
2023-03-11T12:12:19.137Z,99200.50
2023-03-11T12:15:02.235Z,99220.85
2023-03-11T12:17:37.832Z,99217.39
2023-03-11T12:20:15.711Z,99226.10
2023-03-11T12:23:11.207Z,99217.73
2023-03-11T12:25:59.511Z,99243.45
2023-03-11T12:28:43.401Z,99253.71
2023-03-11T12:31:16.416Z,99261.95
2023-03-11T12:33:56.932Z,99256.02
2023-03-11T12:36:34.170Z,99258.32
2023-03-11T12:39:08.946Z,99265.48
2023-03-11T12:41:43.071Z,99263.70
2023-03-11T12:44:28.874Z,99269.52
2023-03-11T12:47:35.562Z,99266.50
2023-03-11T12:50:43.749Z,99273.92
2023-03-11T12:53:20.723Z,99281.90
2023-03-11T12:56:10.580Z,99294.77
2023-03-11T12:59:07.681Z,99288.95
2023-03-11T13:02:12.995Z,99299.52
2023-03-11T13:04:58.340Z,99310.13
2023-03-11T13:07:52.600Z,99308.95
2023-03-11T13:10:39.739Z,99320.58
2023-03-11T13:13:35.452Z,99328.81
2023-03-11T13:16:44.321Z,99331.04
2023-03-11T13:19:50.055Z,99338.32
2023-03-11T13:22:46.199Z,99336.61
2023-03-11T13:25:38.734Z,99338.17
2023-03-11T13:28:32.180Z,99351.46
2023-03-11T13:31:18.094Z,99353.33
2023-03-11T13:33:55.534Z,99353.30
2023-03-11T13:36:54.850Z,99356.04
2023-03-11T13:39:44.413Z,99356.67
2023-03-11T13:42:25.567Z,99369.35
2023-03-11T13:44:59.182Z,99353.56
2023-03-11T13:47:34.251Z,99368.94
2023-03-11T13:50:11.528Z,99375.20
2023-03-11T13:52:49.285Z,99379.04
2023-03-11T13:55:25.218Z,99402.56
2023-03-11T13:57:59.227Z,99403.02
2023-03-11T14:00:34.103Z,99408.23
2023-03-11T14:03:11.557Z,99412.96
2023-03-11T14:05:49.081Z,99425.46
2023-03-11T14:08:27.046Z,99422.25
2023-03-11T14:11:00.943Z,99426.29
2023-03-11T14:13:34.235Z,99418.96
2023-03-11T14:16:10.270Z,99445.67
2023-03-11T14:18:44.490Z,99435.56
2023-03-11T14:21:19.383Z,99441.05
2023-03-11T14:23:54.624Z,99444.97
2023-03-11T14:26:30.523Z,99453.52
2023-03-11T14:29:09.705Z,99456.96
2023-03-11T14:31:44.812Z,99460.42
2023-03-11T14:34:20.279Z,99469.36
2023-03-11T14:36:57.081Z,99472.25
2023-03-11T14:39:32.128Z,99477.18
2023-03-11T14:42:13.868Z,99482.02
2023-03-11T14:44:49.825Z,99487.95
2023-03-11T14:47:32.073Z,99485.41
2023-03-11T14:50:06.479Z,99481.77
2023-03-11T14:52:44.894Z,99493.33
2023-03-11T14:55:21.598Z,99496.70
2023-03-11T14:57:56.058Z,99482.91
2023-03-11T15:00:35.197Z,99493.58
2023-03-11T15:03:15.027Z,99497.58
2023-03-11T15:05:51.635Z,99507.90
2023-03-11T15:08:27.977Z,99510.20
2023-03-11T15:11:20.527Z,99513.21
2023-03-11T15:13:54.119Z,99515.42
2023-03-11T15:16:33.624Z,99516.62
2023-03-11T15:19:24.848Z,99524.47
2023-03-11T15:21:59.779Z,99512.55
2023-03-11T15:24:31.651Z,99532.21
2023-03-11T15:27:07.499Z,99557.36
2023-03-11T15:29:40.526Z,99568.46
2023-03-11T15:32:40.348Z,99559.14
2023-03-11T15:35:20.567Z,99565.60
2023-03-11T15:38:12.576Z,99566.77
2023-03-11T15:40:53.937Z,99570.80
2023-03-11T15:43:30.713Z,99573.52
2023-03-11T15:46:05.173Z,99579.65
2023-03-11T15:48:37.661Z,99562.90
2023-03-11T15:51:21.361Z,99570.77
2023-03-11T15:53:54.326Z,99586.42
2023-03-11T15:56:28.010Z,99584.63
2023-03-11T15:59:00.644Z,99593.73
2023-03-11T16:01:33.880Z,99597.27
2023-03-11T16:04:07.587Z,99592.14
2023-03-11T16:06:40.137Z,99592.52
2023-03-11T16:09:13.203Z,99593.52
2023-03-11T16:11:46.271Z,99584.11
2023-03-11T16:14:20.715Z,99595.56
2023-03-11T16:16:53.311Z,99596.52
2023-03-11T16:19:25.785Z,99604.03
2023-03-11T16:21:58.872Z,99606.83
2023-03-11T16:24:31.730Z,99610.61
2023-03-11T16:27:04.230Z,99613.05
2023-03-11T16:29:36.739Z,99615.80
2023-03-11T16:32:10.806Z,99620.94
2023-03-11T16:34:43.283Z,99624.01
2023-03-11T16:37:20.789Z,99630.52
2023-03-11T16:39:53.774Z,99636.34
2023-03-11T16:42:26.374Z,99634.11
2023-03-11T16:44:58.834Z,99636.09
2023-03-11T16:47:31.369Z,99639.98
2023-03-11T16:50:06.936Z,99638.42
2023-03-11T16:52:39.737Z,99648.58
2023-03-11T16:55:14.437Z,99646.36
2023-03-11T16:57:47.154Z,99646.66
2023-03-11T17:00:20.261Z,99654.17
2023-03-11T17:02:53.693Z,99656.98
2023-03-11T17:05:26.137Z,99662.48
2023-03-11T17:08:01.166Z,99669.45
2023-03-11T17:10:36.975Z,99676.09
2023-03-11T17:13:10.775Z,99680.45
2023-03-11T17:15:44.621Z,99684.58
2023-03-11T17:18:17.114Z,99689.52
2023-03-11T17:20:49.518Z,99691.69
2023-03-11T17:23:22.533Z,99695.23
2023-03-11T17:25:55.280Z,99700.29
2023-03-11T17:28:28.018Z,99699.92
2023-03-11T17:31:00.710Z,99706.22
2023-03-11T17:33:33.388Z,99712.08
2023-03-11T17:36:08.130Z,99713.21
2023-03-11T17:38:39.069Z,99704.09
2023-03-11T17:41:13.732Z,99723.58
2023-03-11T17:43:44.869Z,99728.11
2023-03-11T17:46:19.252Z,99735.70
2023-03-11T17:48:52.472Z,99732.97
2023-03-11T17:51:27.091Z,99739.45
2023-03-11T17:53:59.853Z,99739.80
2023-03-11T17:56:32.886Z,99730.57
2023-03-11T17:59:05.332Z,99752.03
2023-03-11T18:01:37.754Z,99752.50
2023-03-11T18:04:10.305Z,99758.96
2023-03-11T18:06:43.417Z,99759.36
2023-03-11T18:09:17.783Z,99762.55
2023-03-11T18:11:50.170Z,99766.05
2023-03-11T18:14:23.647Z,99764.44
2023-03-11T18:16:56.892Z,99772.59
2023-03-11T18:19:30.051Z,99759.36
2023-03-11T18:22:02.754Z,99776.00
2023-03-11T18:24:35.780Z,99781.39
2023-03-11T18:27:09.357Z,99775.91
2023-03-11T18:29:42.017Z,99785.35
2023-03-11T18:32:14.495Z,99794.11
2023-03-11T18:34:50.600Z,99775.75
2023-03-11T18:37:23.430Z,99795.97
2023-03-11T18:39:55.915Z,99798.61
2023-03-11T18:42:28.522Z,99799.57
2023-03-11T18:45:01.000Z,99805.63
2023-03-11T18:47:36.426Z,99807.36
2023-03-11T18:50:10.454Z,99808.88
2023-03-11T18:52:43.094Z,99813.79
2023-03-11T18:55:15.996Z,99812.84
2023-03-11T18:57:48.829Z,99816.66
2023-03-11T19:00:23.788Z,99818.00
2023-03-11T19:02:56.997Z,99805.48
2023-03-11T19:05:29.617Z,99820.86
2023-03-11T19:08:02.246Z,99819.28
2023-03-11T19:10:34.692Z,99823.21
2023-03-11T19:13:07.411Z,99822.63
2023-03-11T19:15:43.037Z,99826.02
2023-03-11T19:18:16.340Z,99832.52
2023-03-11T19:20:58.918Z,99838.17
2023-03-11T19:23:31.714Z,99842.03
2023-03-11T19:26:04.657Z,99845.83
2023-03-11T19:28:38.147Z,99846.73
2023-03-11T19:31:10.689Z,99849.67
2023-03-11T19:33:43.417Z,99850.52
2023-03-11T19:36:16.710Z,99852.36
2023-03-11T19:38:49.481Z,99861.11
2023-03-11T19:41:23.307Z,99858.65
2023-03-11T19:43:55.781Z,99866.36
2023-03-11T19:46:29.661Z,99868.39
2023-03-11T19:49:02.306Z,99864.12
2023-03-11T19:51:49.062Z,99866.71
2023-03-11T19:54:23.130Z,99871.02
2023-03-11T19:56:55.854Z,99870.73
2023-03-11T19:59:28.566Z,99873.16
2023-03-11T20:02:01.458Z,99877.01
2023-03-11T20:04:34.175Z,99874.77
2023-03-11T20:07:07.742Z,99875.94
2023-03-11T20:09:40.216Z,99875.89
2023-03-11T20:12:12.905Z,99859.72
2023-03-11T20:14:46.438Z,99879.71
2023-03-11T20:17:19.759Z,99877.42
2023-03-11T20:19:52.219Z,99880.83
2023-03-11T20:22:24.712Z,99885.20
2023-03-11T20:24:57.531Z,99885.83
2023-03-11T20:27:30.715Z,99895.30
2023-03-11T20:30:03.424Z,99892.27
2023-03-11T20:32:36.289Z,99892.20
2023-03-11T20:35:11.566Z,99896.52
2023-03-11T20:37:45.246Z,99891.18
2023-03-11T20:40:18.698Z,99892.63
2023-03-11T20:42:51.460Z,99897.70
2023-03-11T20:45:23.947Z,99892.80
2023-03-11T20:47:57.283Z,99896.05
2023-03-11T20:50:29.815Z,99899.20
2023-03-11T20:53:02.598Z,99895.45
2023-03-11T20:55:35.059Z,99883.12
2023-03-11T20:58:08.650Z,99896.49
2023-03-11T21:00:41.688Z,99895.14
2023-03-11T21:03:14.217Z,99893.91
2023-03-11T21:05:47.601Z,99893.06
2023-03-11T21:08:20.163Z,99888.29
2023-03-11T21:10:52.702Z,99879.88
2023-03-11T21:13:25.352Z,99893.25
2023-03-11T21:15:57.781Z,99891.23
2023-03-11T21:18:30.559Z,99891.27
2023-03-11T21:21:04.017Z,99891.83
2023-03-11T21:23:37.103Z,99890.19
2023-03-11T21:26:10.020Z,99889.53
2023-03-11T21:28:47.100Z,99893.30
2023-03-11T21:31:21.993Z,99888.80
2023-03-11T21:33:55.500Z,99888.80
2023-03-11T21:36:28.843Z,99884.62
2023-03-11T21:39:03.588Z,99887.68
2023-03-11T21:41:36.805Z,99890.41
2023-03-11T21:44:09.392Z,99890.02
2023-03-11T21:46:41.928Z,99884.77
2023-03-11T21:49:25.231Z,99871.78
2023-03-11T21:52:21.037Z,99885.73
2023-03-11T21:55:04.405Z,99881.05
2023-03-11T21:57:54.893Z,99877.64
2023-03-11T22:00:37.290Z,99881.20
2023-03-11T22:03:10.218Z,99870.08
2023-03-11T22:05:43.232Z,99875.36
2023-03-11T22:08:16.042Z,99873.45
2023-03-11T22:10:48.823Z,99876.64
2023-03-11T22:13:21.759Z,99877.43
2023-03-11T22:15:54.482Z,99873.34
2023-03-11T22:18:27.257Z,99880.99
2023-03-11T22:21:01.748Z,99877.80
2023-03-11T22:23:35.015Z,99873.67
2023-03-11T22:26:07.942Z,99882.80
2023-03-11T22:28:40.367Z,99877.39
2023-03-11T22:31:15.335Z,99876.85
2023-03-11T22:33:47.991Z,99875.91
2023-03-11T22:36:20.440Z,99875.88
2023-03-11T22:38:53.116Z,99879.79
2023-03-11T22:41:25.693Z,99881.18
2023-03-11T22:43:58.086Z,99879.09
2023-03-11T22:46:31.310Z,99878.41
2023-03-11T22:49:03.784Z,99868.70
2023-03-11T22:51:36.171Z,99872.78
2023-03-11T22:54:08.642Z,99871.39
2023-03-11T22:56:41.209Z,99868.36
2023-03-11T22:59:13.699Z,99871.73
2023-03-11T23:01:46.485Z,99869.55
2023-03-11T23:04:19.188Z,99858.46
2023-03-11T23:06:54.491Z,99867.11
2023-03-11T23:09:27.548Z,99868.71
2023-03-11T23:12:03.820Z,99866.10
2023-03-11T23:14:44.519Z,99861.20
2023-03-11T23:17:19.525Z,99859.63
2023-03-11T23:19:52.241Z,99842.13
2023-03-11T23:22:24.838Z,99856.69
2023-03-11T23:24:57.402Z,99853.23
2023-03-11T23:27:31.382Z,99851.61
2023-03-11T23:30:03.885Z,99852.13
2023-03-11T23:32:36.593Z,99852.56
2023-03-11T23:35:10.805Z,99849.02
2023-03-11T23:37:43.346Z,99849.53
2023-03-11T23:40:16.919Z,99846.23
2023-03-11T23:42:51.838Z,99852.80
2023-03-11T23:45:24.277Z,99849.45
2023-03-11T23:47:56.781Z,99851.89
2023-03-11T23:50:29.260Z,99840.60
2023-03-11T23:53:01.760Z,99854.30
2023-03-11T23:55:37.575Z,99847.52
2023-03-11T23:58:10.068Z,99848.27
